Flight Number: EUR1060 Duration: 7:00
Departure: Dubai Int'l (OMDB) at 04:30 Distance: 2959 Nm
Arrival: Gatwick Airport (EGKK) at 11:30 Equipment: B777

Weather Information
Dubai International Airport, United Arab Emirates (OMDB) 25-15N 055-20E 5M Feb 21, 2018 - 11:00 AM EST / 2018.02.21 1600 UTC
Wind: from the N (010 degrees) at 3 MPH (3 KT) (direction variable):0
Visibility: 4 mile(s):0 Temperature: 71 F (22 C) Dew Point: 60 F (16 C) Relative Humidity: 68% Pressure (altimeter): 29.91 in. Hg (1013 hPa)
ob: OMDB 211600Z 01003KT 310V100 8000 NSC 22/16 Q1013 NOSIG cycle: 16
Sunrise: 02:50 Sunset: 14:13 (UTC)

London / Gatwick Airport, United Kingdom (EGKK) 51-09N 000-11W 0M Feb 21, 2018 - 11:20 AM EST / 2018.02.21 1620 UTC
Wind: from the NNE (030 degrees) at 9 MPH (8 KT):0
Visibility: greater than 7 mile(s):0
Sky conditions: partly cloudy Temperature: 42 F (6 C) Dew Point: 32 F (0 C) Relative Humidity: 65% Pressure (altimeter): 30.27 in. Hg (1025 hPa)
ob: EGKK 211620Z AUTO 03008KT 9999 FEW031/// SCT043/// 06/00 Q1025 cycle: 16
Sunrise: 07:04 Sunset: 17:23 (UTC)

TAF:2018/02/21 12:15 TAF EGKK 211104Z 2112/2218 04008KT 8000 SCT028 TEMPO 2112/2119 9999 PROB30 2123/2207 4000 BR BECMG 2207/2210 9999

Previous Pireps for this route
Date Aircraft Flight time Fuel used Landing rate On time
2013-01-17B7777.141104940No
2013-02-02B7776.551106000Yes
2013-10-17B7778.231792230No
2013-12-26B77707.2487977-362No
2014-05-25B77708.1784347-388No
2014-09-20B7777.541220890Yes
2014-11-28B77707.0779217-342No
2015-05-23B74709.02166683-115Charter
2015-10-13B737645211-645Charter
2016-04-25B7778.151130No
2016-05-28B7776.541330000No
(pireps marked green are flown by you)

Route map